sensor_id;sensor_type;location;lat;lon;timestamp;P1;durP1;ratioP1;P2;durP2;ratioP2
58685;SDS011;44465;53.206;-6.106;2024-02-21T00:02:06;6.72;;;3.35;;
58685;SDS011;44465;53.206;-6.106;2024-02-21T00:04:32;6.15;;;2.75;;
58685;SDS011;44465;53.206;-6.106;2024-02-21T00:06:57;7.63;;;3.13;;
58685;SDS011;44465;53.206;-6.106;2024-02-21T00:09:24;5.75;;;3.30;;
58685;SDS011;44465;53.206;-6.106;2024-02-21T00:11:49;7.18;;;3.55;;
58685;SDS011;44465;53.206;-6.106;2024-02-21T00:14:14;5.93;;;2.70;;
58685;SDS011;44465;53.206;-6.106;2024-02-21T00:16:41;8.32;;;2.85;;
58685;SDS011;44465;53.206;-6.106;2024-02-21T00:19:06;4.85;;;3.10;;
58685;SDS011;44465;53.206;-6.106;2024-02-21T00:21:31;4.05;;;2.50;;
58685;SDS011;44465;53.206;-6.106;2024-02-21T00:23:57;4.65;;;2.55;;
58685;SDS011;44465;53.206;-6.106;2024-02-21T00:26:22;8.38;;;2.63;;
58685;SDS011;44465;53.206;-6.106;2024-02-21T00:28:48;5.50;;;3.00;;
58685;SDS011;44465;53.206;-6.106;2024-02-21T00:31:13;4.60;;;2.47;;
58685;SDS011;44465;53.206;-6.106;2024-02-21T00:33:39;4.35;;;2.65;;
58685;SDS011;44465;53.206;-6.106;2024-02-21T00:36:04;4.10;;;2.65;;
58685;SDS011;44465;53.206;-6.106;2024-02-21T00:38:30;3.47;;;2.13;;
58685;SDS011;44465;53.206;-6.106;2024-02-21T00:40:55;4.35;;;2.45;;
58685;SDS011;44465;53.206;-6.106;2024-02-21T00:43:21;6.97;;;2.85;;
58685;SDS011;44465;53.206;-6.106;2024-02-21T00:45:49;3.47;;;2.50;;
58685;SDS011;44465;53.206;-6.106;2024-02-21T00:48:14;3.83;;;2.50;;
58685;SDS011;44465;53.206;-6.106;2024-02-21T00:50:40;2.90;;;2.42;;
58685;SDS011;44465;53.206;-6.106;2024-02-21T00:53:06;3.58;;;2.20;;
58685;SDS011;44465;53.206;-6.106;2024-02-21T00:55:31;4.28;;;2.30;;
58685;SDS011;44465;53.206;-6.106;2024-02-21T00:57:57;2.55;;;1.90;;
58685;SDS011;44465;53.206;-6.106;2024-02-21T01:00:22;3.60;;;2.13;;
58685;SDS011;44465;53.206;-6.106;2024-02-21T01:02:48;4.72;;;2.47;;
58685;SDS011;44465;53.206;-6.106;2024-02-21T01:05:13;3.50;;;2.30;;
58685;SDS011;44465;53.206;-6.106;2024-02-21T01:07:39;3.35;;;2.25;;
58685;SDS011;44465;53.206;-6.106;2024-02-21T01:10:04;3.03;;;2.08;;
58685;SDS011;44465;53.206;-6.106;2024-02-21T01:12:31;2.83;;;1.90;;
58685;SDS011;44465;53.206;-6.106;2024-02-21T01:14:56;2.58;;;2.05;;
58685;SDS011;44465;53.206;-6.106;2024-02-21T01:17:22;3.30;;;2.05;;
58685;SDS011;44465;53.206;-6.106;2024-02-21T01:19:47;3.42;;;2.08;;
58685;SDS011;44465;53.206;-6.106;2024-02-21T01:22:13;4.15;;;2.35;;
58685;SDS011;44465;53.206;-6.106;2024-02-21T01:24:39;2.50;;;2.27;;
58685;SDS011;44465;53.206;-6.106;2024-02-21T01:27:05;3.38;;;2.00;;
58685;SDS011;44465;53.206;-6.106;2024-02-21T01:29:30;2.15;;;1.60;;
58685;SDS011;44465;53.206;-6.106;2024-02-21T01:31:56;3.17;;;2.00;;
58685;SDS011;44465;53.206;-6.106;2024-02-21T01:34:21;2.78;;;1.90;;
58685;SDS011;44465;53.206;-6.106;2024-02-21T01:36:47;2.85;;;1.73;;
58685;SDS011;44465;53.206;-6.106;2024-02-21T01:39:12;3.15;;;1.70;;
58685;SDS011;44465;53.206;-6.106;2024-02-21T01:41:38;2.58;;;1.77;;
58685;SDS011;44465;53.206;-6.106;2024-02-21T01:44:03;2.95;;;1.95;;
58685;SDS011;44465;53.206;-6.106;2024-02-21T01:46:29;3.67;;;1.80;;
58685;SDS011;44465;53.206;-6.106;2024-02-21T01:48:56;2.05;;;1.80;;
58685;SDS011;44465;53.206;-6.106;2024-02-21T01:51:22;4.22;;;1.60;;
58685;SDS011;44465;53.206;-6.106;2024-02-21T01:53:48;2.05;;;1.50;;
58685;SDS011;44465;53.206;-6.106;2024-02-21T01:56:17;2.05;;;1.50;;
58685;SDS011;44465;53.206;-6.106;2024-02-21T01:58:43;1.90;;;1.67;;
58685;SDS011;44465;53.206;-6.106;2024-02-21T02:01:12;1.98;;;1.70;;
58685;SDS011;44465;53.206;-6.106;2024-02-21T02:03:37;3.67;;;1.88;;
58685;SDS011;44465;53.206;-6.106;2024-02-21T02:06:04;2.58;;;1.83;;
58685;SDS011;44465;53.206;-6.106;2024-02-21T02:08:31;2.75;;;1.60;;
58685;SDS011;44465;53.206;-6.106;2024-02-21T02:10:57;3.15;;;1.60;;
58685;SDS011;44465;53.206;-6.106;2024-02-21T02:13:24;2.03;;;1.50;;
58685;SDS011;44465;53.206;-6.106;2024-02-21T02:15:49;2.25;;;1.17;;
58685;SDS011;44465;53.206;-6.106;2024-02-21T02:18:16;1.75;;;1.50;;
58685;SDS011;44465;53.206;-6.106;2024-02-21T02:20:42;2.58;;;1.25;;
58685;SDS011;44465;53.206;-6.106;2024-02-21T02:23:10;2.03;;;1.23;;
58685;SDS011;44465;53.206;-6.106;2024-02-21T02:25:36;1.50;;;1.40;;
58685;SDS011;44465;53.206;-6.106;2024-02-21T02:28:03;1.55;;;1.45;;
58685;SDS011;44465;53.206;-6.106;2024-02-21T02:30:31;1.77;;;1.50;;
58685;SDS011;44465;53.206;-6.106;2024-02-21T02:33:07;1.73;;;1.20;;
58685;SDS011;44465;53.206;-6.106;2024-02-21T02:35:32;2.92;;;1.33;;
58685;SDS011;44465;53.206;-6.106;2024-02-21T02:37:58;1.88;;;1.10;;
58685;SDS011;44465;53.206;-6.106;2024-02-21T02:40:24;2.45;;;1.40;;
58685;SDS011;44465;53.206;-6.106;2024-02-21T02:42:50;3.00;;;1.08;;
58685;SDS011;44465;53.206;-6.106;2024-02-21T02:45:16;1.77;;;1.20;;
58685;SDS011;44465;53.206;-6.106;2024-02-21T02:47:41;1.63;;;1.30;;
58685;SDS011;44465;53.206;-6.106;2024-02-21T02:50:07;2.53;;;1.17;;
58685;SDS011;44465;53.206;-6.106;2024-02-21T02:52:33;1.23;;;1.10;;
58685;SDS011;44465;53.206;-6.106;2024-02-21T02:54:59;2.80;;;1.00;;
58685;SDS011;44465;53.206;-6.106;2024-02-21T02:57:24;2.05;;;1.00;;
58685;SDS011;44465;53.206;-6.106;2024-02-21T02:59:50;1.38;;;1.02;;
58685;SDS011;44465;53.206;-6.106;2024-02-21T03:02:16;1.42;;;1.10;;
58685;SDS011;44465;53.206;-6.106;2024-02-21T03:04:42;1.33;;;1.20;;
58685;SDS011;44465;53.206;-6.106;2024-02-21T03:07:08;2.22;;;1.23;;
58685;SDS011;44465;53.206;-6.106;2024-02-21T03:09:34;1.67;;;1.10;;
58685;SDS011;44465;53.206;-6.106;2024-02-21T03:11:59;1.65;;;1.20;;
58685;SDS011;44465;53.206;-6.106;2024-02-21T03:14:31;2.42;;;0.90;;
58685;SDS011;44465;53.206;-6.106;2024-02-21T03:16:57;1.08;;;0.90;;
58685;SDS011;44465;53.206;-6.106;2024-02-21T03:19:24;1.15;;;0.75;;
58685;SDS011;44465;53.206;-6.106;2024-02-21T03:21:50;2.22;;;1.00;;
58685;SDS011;44465;53.206;-6.106;2024-02-21T03:24:16;1.50;;;1.05;;
58685;SDS011;44465;53.206;-6.106;2024-02-21T03:26:42;1.75;;;1.30;;
58685;SDS011;44465;53.206;-6.106;2024-02-21T03:29:08;1.73;;;1.20;;
58685;SDS011;44465;53.206;-6.106;2024-02-21T03:31:37;9.10;;;3.35;;
58685;SDS011;44465;53.206;-6.106;2024-02-21T03:34:03;5.47;;;2.20;;
58685;SDS011;44465;53.206;-6.106;2024-02-21T03:36:28;4.82;;;2.25;;
58685;SDS011;44465;53.206;-6.106;2024-02-21T03:38:54;3.80;;;1.90;;
58685;SDS011;44465;53.206;-6.106;2024-02-21T03:41:20;5.50;;;2.22;;
58685;SDS011;44465;53.206;-6.106;2024-02-21T03:43:46;2.47;;;1.20;;
58685;SDS011;44465;53.206;-6.106;2024-02-21T03:46:12;1.90;;;1.30;;
58685;SDS011;44465;53.206;-6.106;2024-02-21T03:48:37;3.63;;;1.58;;
58685;SDS011;44465;53.206;-6.106;2024-02-21T03:51:03;2.95;;;1.52;;
58685;SDS011;44465;53.206;-6.106;2024-02-21T03:53:29;3.63;;;1.63;;
58685;SDS011;44465;53.206;-6.106;2024-02-21T03:55:55;3.45;;;1.50;;
58685;SDS011;44465;53.206;-6.106;2024-02-21T03:58:21;2.83;;;1.45;;
58685;SDS011;44465;53.206;-6.106;2024-02-21T04:00:47;3.40;;;1.05;;
58685;SDS011;44465;53.206;-6.106;2024-02-21T04:03:13;2.65;;;1.20;;
58685;SDS011;44465;53.206;-6.106;2024-02-21T04:05:38;2.90;;;1.17;;
58685;SDS011;44465;53.206;-6.106;2024-02-21T04:08:04;2.03;;;1.30;;
58685;SDS011;44465;53.206;-6.106;2024-02-21T04:10:30;2.35;;;1.20;;
58685;SDS011;44465;53.206;-6.106;2024-02-21T04:12:56;2.60;;;1.58;;
58685;SDS011;44465;53.206;-6.106;2024-02-21T04:15:22;2.25;;;1.20;;
58685;SDS011;44465;53.206;-6.106;2024-02-21T04:17:47;1.63;;;1.10;;
58685;SDS011;44465;53.206;-6.106;2024-02-21T04:20:14;1.02;;;0.80;;
58685;SDS011;44465;53.206;-6.106;2024-02-21T04:22:43;1.98;;;1.08;;
58685;SDS011;44465;53.206;-6.106;2024-02-21T04:25:09;2.60;;;1.05;;
58685;SDS011;44465;53.206;-6.106;2024-02-21T04:27:36;1.88;;;1.00;;
58685;SDS011;44465;53.206;-6.106;2024-02-21T04:30:03;1.00;;;1.00;;
58685;SDS011;44465;53.206;-6.106;2024-02-21T04:32:29;1.15;;;0.90;;
58685;SDS011;44465;53.206;-6.106;2024-02-21T04:34:54;1.45;;;0.90;;
58685;SDS011;44465;53.206;-6.106;2024-02-21T04:37:20;0.93;;;0.82;;
58685;SDS011;44465;53.206;-6.106;2024-02-21T04:39:46;2.72;;;0.95;;
58685;SDS011;44465;53.206;-6.106;2024-02-21T04:42:11;1.98;;;0.80;;
58685;SDS011;44465;53.206;-6.106;2024-02-21T04:44:37;1.15;;;0.98;;
58685;SDS011;44465;53.206;-6.106;2024-02-21T04:47:03;0.75;;;0.60;;
58685;SDS011;44465;53.206;-6.106;2024-02-21T04:49:29;1.50;;;0.60;;
58685;SDS011;44465;53.206;-6.106;2024-02-21T04:51:54;1.00;;;0.80;;
58685;SDS011;44465;53.206;-6.106;2024-02-21T04:54:20;1.15;;;1.00;;
58685;SDS011;44465;53.206;-6.106;2024-02-21T04:56:45;0.77;;;0.73;;
58685;SDS011;44465;53.206;-6.106;2024-02-21T04:59:11;1.52;;;0.82;;
58685;SDS011;44465;53.206;-6.106;2024-02-21T05:01:36;1.42;;;0.90;;
58685;SDS011;44465;53.206;-6.106;2024-02-21T05:04:02;1.13;;;0.70;;
58685;SDS011;44465;53.206;-6.106;2024-02-21T05:06:28;1.00;;;0.60;;
58685;SDS011;44465;53.206;-6.106;2024-02-21T05:08:53;1.15;;;0.70;;
58685;SDS011;44465;53.206;-6.106;2024-02-21T05:11:23;0.47;;;0.47;;
58685;SDS011;44465;53.206;-6.106;2024-02-21T05:13:50;1.00;;;0.70;;
58685;SDS011;44465;53.206;-6.106;2024-02-21T05:16:15;0.95;;;0.40;;
58685;SDS011;44465;53.206;-6.106;2024-02-21T05:18:41;1.25;;;0.77;;
58685;SDS011;44465;53.206;-6.106;2024-02-21T05:21:07;1.40;;;0.65;;
58685;SDS011;44465;53.206;-6.106;2024-02-21T05:23:33;0.98;;;0.70;;
58685;SDS011;44465;53.206;-6.106;2024-02-21T05:25:58;0.85;;;0.55;;
58685;SDS011;44465;53.206;-6.106;2024-02-21T05:28:24;0.82;;;0.55;;
58685;SDS011;44465;53.206;-6.106;2024-02-21T05:30:49;0.90;;;0.70;;
58685;SDS011;44465;53.206;-6.106;2024-02-21T05:33:15;1.38;;;0.70;;
58685;SDS011;44465;53.206;-6.106;2024-02-21T05:35:46;0.50;;;0.47;;
58685;SDS011;44465;53.206;-6.106;2024-02-21T05:38:13;1.10;;;0.68;;
58685;SDS011;44465;53.206;-6.106;2024-02-21T05:40:38;0.70;;;0.50;;
58685;SDS011;44465;53.206;-6.106;2024-02-21T05:43:04;0.65;;;0.50;;
58685;SDS011;44465;53.206;-6.106;2024-02-21T05:45:29;0.68;;;0.50;;
58685;SDS011;44465;53.206;-6.106;2024-02-21T05:47:55;0.82;;;0.70;;
58685;SDS011;44465;53.206;-6.106;2024-02-21T05:50:22;1.35;;;0.50;;
58685;SDS011;44465;53.206;-6.106;2024-02-21T05:52:50;0.40;;;0.40;;
58685;SDS011;44465;53.206;-6.106;2024-02-21T05:55:16;1.65;;;0.50;;
58685;SDS011;44465;53.206;-6.106;2024-02-21T05:57:42;0.50;;;0.50;;
58685;SDS011;44465;53.206;-6.106;2024-02-21T06:00:08;0.45;;;0.40;;
58685;SDS011;44465;53.206;-6.106;2024-02-21T06:02:39;0.40;;;0.40;;
58685;SDS011;44465;53.206;-6.106;2024-02-21T06:05:06;0.85;;;0.55;;
58685;SDS011;44465;53.206;-6.106;2024-02-21T06:07:33;0.40;;;0.40;;
58685;SDS011;44465;53.206;-6.106;2024-02-21T06:09:58;0.60;;;0.32;;
58685;SDS011;44465;53.206;-6.106;2024-02-21T06:12:23;0.45;;;0.40;;
58685;SDS011;44465;53.206;-6.106;2024-02-21T06:14:49;1.10;;;0.43;;
58685;SDS011;44465;53.206;-6.106;2024-02-21T06:17:14;0.60;;;0.60;;
58685;SDS011;44465;53.206;-6.106;2024-02-21T06:19:41;0.40;;;0.38;;
58685;SDS011;44465;53.206;-6.106;2024-02-21T06:22:08;0.40;;;0.38;;
58685;SDS011;44465;53.206;-6.106;2024-02-21T06:24:37;0.68;;;0.40;;
58685;SDS011;44465;53.206;-6.106;2024-02-21T06:27:06;0.30;;;0.30;;
58685;SDS011;44465;53.206;-6.106;2024-02-21T06:29:32;0.30;;;0.30;;
58685;SDS011;44465;53.206;-6.106;2024-02-21T06:31:58;2.92;;;0.43;;
58685;SDS011;44465;53.206;-6.106;2024-02-21T06:34:24;0.90;;;0.40;;
58685;SDS011;44465;53.206;-6.106;2024-02-21T06:36:50;0.52;;;0.30;;
58685;SDS011;44465;53.206;-6.106;2024-02-21T06:39:16;0.35;;;0.30;;
58685;SDS011;44465;53.206;-6.106;2024-02-21T06:41:41;0.38;;;0.38;;
58685;SDS011;44465;53.206;-6.106;2024-02-21T06:44:07;0.57;;;0.30;;
58685;SDS011;44465;53.206;-6.106;2024-02-21T06:46:33;0.40;;;0.40;;
58685;SDS011;44465;53.206;-6.106;2024-02-21T06:48:59;0.30;;;0.30;;
58685;SDS011;44465;53.206;-6.106;2024-02-21T06:51:25;1.07;;;0.30;;
58685;SDS011;44465;53.206;-6.106;2024-02-21T06:53:51;1.25;;;0.75;;
58685;SDS011;44465;53.206;-6.106;2024-02-21T06:56:18;0.73;;;0.30;;
58685;SDS011;44465;53.206;-6.106;2024-02-21T06:58:44;0.38;;;0.38;;
58685;SDS011;44465;53.206;-6.106;2024-02-21T07:01:10;0.40;;;0.40;;
58685;SDS011;44465;53.206;-6.106;2024-02-21T07:03:36;2.08;;;0.88;;
58685;SDS011;44465;53.206;-6.106;2024-02-21T07:06:01;1.42;;;0.45;;
58685;SDS011;44465;53.206;-6.106;2024-02-21T07:08:27;0.68;;;0.50;;
58685;SDS011;44465;53.206;-6.106;2024-02-21T07:10:53;0.60;;;0.60;;
58685;SDS011;44465;53.206;-6.106;2024-02-21T07:13:18;2.65;;;0.73;;
58685;SDS011;44465;53.206;-6.106;2024-02-21T07:15:44;0.93;;;0.47;;
58685;SDS011;44465;53.206;-6.106;2024-02-21T07:18:09;1.23;;;0.60;;
58685;SDS011;44465;53.206;-6.106;2024-02-21T07:20:35;0.85;;;0.50;;
58685;SDS011;44465;53.206;-6.106;2024-02-21T07:23:02;2.00;;;0.65;;
58685;SDS011;44465;53.206;-6.106;2024-02-21T07:25:28;1.55;;;0.57;;
58685;SDS011;44465;53.206;-6.106;2024-02-21T07:27:54;1.00;;;0.60;;
58685;SDS011;44465;53.206;-6.106;2024-02-21T07:30:19;0.32;;;0.32;;
58685;SDS011;44465;53.206;-6.106;2024-02-21T07:32:45;1.90;;;0.70;;
58685;SDS011;44465;53.206;-6.106;2024-02-21T07:35:10;0.68;;;0.50;;
58685;SDS011;44465;53.206;-6.106;2024-02-21T07:37:37;1.85;;;0.55;;
58685;SDS011;44465;53.206;-6.106;2024-02-21T07:40:06;1.83;;;0.95;;
58685;SDS011;44465;53.206;-6.106;2024-02-21T07:42:37;0.60;;;0.40;;
58685;SDS011;44465;53.206;-6.106;2024-02-21T07:45:02;0.45;;;0.20;;
58685;SDS011;44465;53.206;-6.106;2024-02-21T07:47:28;0.95;;;0.40;;
58685;SDS011;44465;53.206;-6.106;2024-02-21T07:49:54;0.75;;;0.43;;
58685;SDS011;44465;53.206;-6.106;2024-02-21T07:52:19;1.65;;;0.45;;
58685;SDS011;44465;53.206;-6.106;2024-02-21T07:54:45;0.63;;;0.40;;
58685;SDS011;44465;53.206;-6.106;2024-02-21T07:57:10;1.45;;;0.50;;
58685;SDS011;44465;53.206;-6.106;2024-02-21T07:59:36;0.85;;;0.32;;
58685;SDS011;44465;53.206;-6.106;2024-02-21T08:02:01;0.65;;;0.40;;
58685;SDS011;44465;53.206;-6.106;2024-02-21T08:04:27;1.55;;;0.50;;
58685;SDS011;44465;53.206;-6.106;2024-02-21T08:06:53;0.82;;;0.43;;
58685;SDS011;44465;53.206;-6.106;2024-02-21T08:09:21;0.75;;;0.65;;
58685;SDS011;44465;53.206;-6.106;2024-02-21T08:11:47;0.50;;;0.50;;
58685;SDS011;44465;53.206;-6.106;2024-02-21T08:14:13;0.85;;;0.30;;
58685;SDS011;44465;53.206;-6.106;2024-02-21T08:16:41;0.40;;;0.40;;
58685;SDS011;44465;53.206;-6.106;2024-02-21T08:19:07;0.65;;;0.65;;
58685;SDS011;44465;53.206;-6.106;2024-02-21T08:21:32;2.28;;;0.40;;
58685;SDS011;44465;53.206;-6.106;2024-02-21T08:23:58;0.55;;;0.30;;
58685;SDS011;44465;53.206;-6.106;2024-02-21T08:26:23;0.35;;;0.30;;
58685;SDS011;44465;53.206;-6.106;2024-02-21T08:28:49;2.90;;;0.63;;
58685;SDS011;44465;53.206;-6.106;2024-02-21T08:31:19;3.00;;;0.93;;
58685;SDS011;44465;53.206;-6.106;2024-02-21T08:33:45;3.22;;;0.82;;
58685;SDS011;44465;53.206;-6.106;2024-02-21T08:36:19;5.30;;;0.50;;
58685;SDS011;44465;53.206;-6.106;2024-02-21T08:38:45;2.17;;;0.43;;
58685;SDS011;44465;53.206;-6.106;2024-02-21T08:41:11;2.60;;;0.70;;
58685;SDS011;44465;53.206;-6.106;2024-02-21T08:43:37;0.32;;;0.32;;
58685;SDS011;44465;53.206;-6.106;2024-02-21T08:46:03;2.10;;;0.32;;
58685;SDS011;44465;53.206;-6.106;2024-02-21T08:48:29;5.65;;;0.60;;
58685;SDS011;44465;53.206;-6.106;2024-02-21T08:50:54;1.27;;;0.47;;
58685;SDS011;44465;53.206;-6.106;2024-02-21T08:53:20;0.75;;;0.43;;
58685;SDS011;44465;53.206;-6.106;2024-02-21T08:55:45;2.00;;;0.45;;
58685;SDS011;44465;53.206;-6.106;2024-02-21T08:58:11;2.05;;;0.40;;
58685;SDS011;44465;53.206;-6.106;2024-02-21T09:00:37;3.00;;;0.70;;
58685;SDS011;44465;53.206;-6.106;2024-02-21T09:03:02;2.05;;;0.52;;
58685;SDS011;44465;53.206;-6.106;2024-02-21T09:05:28;1.25;;;0.40;;
58685;SDS011;44465;53.206;-6.106;2024-02-21T09:07:54;0.50;;;0.30;;
58685;SDS011;44465;53.206;-6.106;2024-02-21T09:10:20;2.13;;;0.40;;
58685;SDS011;44465;53.206;-6.106;2024-02-21T09:12:46;3.20;;;0.40;;
58685;SDS011;44465;53.206;-6.106;2024-02-21T09:15:12;0.75;;;0.38;;
58685;SDS011;44465;53.206;-6.106;2024-02-21T09:17:38;0.30;;;0.30;;
58685;SDS011;44465;53.206;-6.106;2024-02-21T09:20:04;0.45;;;0.30;;
58685;SDS011;44465;53.206;-6.106;2024-02-21T09:22:31;0.28;;;0.22;;
58685;SDS011;44465;53.206;-6.106;2024-02-21T09:24:59;0.90;;;0.60;;
58685;SDS011;44465;53.206;-6.106;2024-02-21T09:27:25;1.00;;;0.52;;
58685;SDS011;44465;53.206;-6.106;2024-02-21T09:29:51;3.47;;;1.02;;
58685;SDS011;44465;53.206;-6.106;2024-02-21T09:32:17;1.33;;;0.30;;
58685;SDS011;44465;53.206;-6.106;2024-02-21T09:34:44;0.52;;;0.50;;
58685;SDS011;44465;53.206;-6.106;2024-02-21T09:37:10;0.40;;;0.38;;
58685;SDS011;44465;53.206;-6.106;2024-02-21T09:39:35;1.38;;;0.40;;
58685;SDS011;44465;53.206;-6.106;2024-02-21T09:42:07;0.30;;;0.30;;
58685;SDS011;44465;53.206;-6.106;2024-02-21T09:44:37;1.85;;;0.73;;
58685;SDS011;44465;53.206;-6.106;2024-02-21T09:47:04;2.80;;;0.67;;
58685;SDS011;44465;53.206;-6.106;2024-02-21T09:49:35;0.60;;;0.28;;
58685;SDS011;44465;53.206;-6.106;2024-02-21T09:52:04;0.85;;;0.40;;
58685;SDS011;44465;53.206;-6.106;2024-02-21T09:54:32;1.63;;;0.70;;
58685;SDS011;44465;53.206;-6.106;2024-02-21T09:57:02;1.85;;;0.60;;
58685;SDS011;44465;53.206;-6.106;2024-02-21T09:59:28;0.43;;;0.40;;
58685;SDS011;44465;53.206;-6.106;2024-02-21T10:01:56;0.88;;;0.50;;
58685;SDS011;44465;53.206;-6.106;2024-02-21T10:04:22;3.53;;;0.50;;
58685;SDS011;44465;53.206;-6.106;2024-02-21T10:06:48;0.50;;;0.40;;
58685;SDS011;44465;53.206;-6.106;2024-02-21T10:09:23;0.85;;;0.50;;
58685;SDS011;44465;53.206;-6.106;2024-02-21T10:11:52;0.55;;;0.32;;
58685;SDS011;44465;53.206;-6.106;2024-02-21T10:14:18;0.77;;;0.40;;
58685;SDS011;44465;53.206;-6.106;2024-02-21T10:16:44;0.93;;;0.43;;
58685;SDS011;44465;53.206;-6.106;2024-02-21T10:19:19;0.50;;;0.30;;
58685;SDS011;44465;53.206;-6.106;2024-02-21T10:22:07;0.40;;;0.40;;
58685;SDS011;44465;53.206;-6.106;2024-02-21T10:27:02;1.48;;;0.45;;
58685;SDS011;44465;53.206;-6.106;2024-02-21T10:29:29;0.20;;;0.20;;
58685;SDS011;44465;53.206;-6.106;2024-02-21T10:32:30;0.60;;;0.60;;
58685;SDS011;44465;53.206;-6.106;2024-02-21T10:35:00;0.20;;;0.20;;
58685;SDS011;44465;53.206;-6.106;2024-02-21T10:37:26;1.48;;;0.30;;
58685;SDS011;44465;53.206;-6.106;2024-02-21T10:39:53;0.20;;;0.20;;
58685;SDS011;44465;53.206;-6.106;2024-02-21T10:42:18;0.35;;;0.20;;
58685;SDS011;44465;53.206;-6.106;2024-02-21T10:44:46;0.15;;;0.15;;
58685;SDS011;44465;53.206;-6.106;2024-02-21T10:47:16;0.35;;;0.35;;
58685;SDS011;44465;53.206;-6.106;2024-02-21T10:49:46;0.43;;;0.40;;
58685;SDS011;44465;53.206;-6.106;2024-02-21T10:54:58;0.20;;;0.20;;
58685;SDS011;44465;53.206;-6.106;2024-02-21T10:57:29;1.08;;;0.20;;
58685;SDS011;44465;53.206;-6.106;2024-02-21T10:59:56;0.30;;;0.30;;
58685;SDS011;44465;53.206;-6.106;2024-02-21T11:02:23;2.30;;;0.35;;
58685;SDS011;44465;53.206;-6.106;2024-02-21T11:04:50;1.27;;;0.50;;
58685;SDS011;44465;53.206;-6.106;2024-02-21T11:09:50;0.30;;;0.30;;
58685;SDS011;44465;53.206;-6.106;2024-02-21T11:12:23;0.40;;;0.40;;
58685;SDS011;44465;53.206;-6.106;2024-02-21T11:14:48;0.20;;;0.20;;
58685;SDS011;44465;53.206;-6.106;2024-02-21T11:17:14;0.30;;;0.30;;
58685;SDS011;44465;53.206;-6.106;2024-02-21T11:19:44;0.20;;;0.20;;
58685;SDS011;44465;53.206;-6.106;2024-02-21T11:22:19;0.38;;;0.30;;
58685;SDS011;44465;53.206;-6.106;2024-02-21T11:24:47;0.20;;;0.20;;
58685;SDS011;44465;53.206;-6.106;2024-02-21T11:27:16;0.77;;;0.50;;
58685;SDS011;44465;53.206;-6.106;2024-02-21T11:29:46;0.45;;;0.45;;
58685;SDS011;44465;53.206;-6.106;2024-02-21T11:32:16;0.30;;;0.30;;
58685;SDS011;44465;53.206;-6.106;2024-02-21T11:34:59;0.32;;;0.20;;
58685;SDS011;44465;53.206;-6.106;2024-02-21T11:37:33;0.65;;;0.20;;
58685;SDS011;44465;53.206;-6.106;2024-02-21T11:40:02;0.10;;;0.10;;
58685;SDS011;44465;53.206;-6.106;2024-02-21T11:42:29;1.02;;;0.30;;
58685;SDS011;44465;53.206;-6.106;2024-02-21T11:44:56;0.87;;;0.50;;
58685;SDS011;44465;53.206;-6.106;2024-02-21T11:47:22;0.40;;;0.40;;
58685;SDS011;44465;53.206;-6.106;2024-02-21T11:49:48;0.15;;;0.13;;
58685;SDS011;44465;53.206;-6.106;2024-02-21T11:52:18;0.13;;;0.10;;
58685;SDS011;44465;53.206;-6.106;2024-02-21T11:54:47;0.38;;;0.38;;
58685;SDS011;44465;53.206;-6.106;2024-02-21T11:57:13;0.32;;;0.20;;
58685;SDS011;44465;53.206;-6.106;2024-02-21T11:59:40;0.13;;;0.13;;
58685;SDS011;44465;53.206;-6.106;2024-02-21T12:02:05;0.20;;;0.20;;
58685;SDS011;44465;53.206;-6.106;2024-02-21T12:04:31;0.10;;;0.10;;
58685;SDS011;44465;53.206;-6.106;2024-02-21T12:06:57;0.20;;;0.20;;
58685;SDS011;44465;53.206;-6.106;2024-02-21T12:09:23;0.35;;;0.30;;
58685;SDS011;44465;53.206;-6.106;2024-02-21T12:12:02;0.10;;;0.10;;
58685;SDS011;44465;53.206;-6.106;2024-02-21T12:14:30;0.20;;;0.20;;
58685;SDS011;44465;53.206;-6.106;2024-02-21T12:16:57;0.13;;;0.13;;
58685;SDS011;44465;53.206;-6.106;2024-02-21T12:19:23;0.35;;;0.30;;
58685;SDS011;44465;53.206;-6.106;2024-02-21T12:21:48;0.15;;;0.15;;
58685;SDS011;44465;53.206;-6.106;2024-02-21T12:24:22;0.20;;;0.20;;
58685;SDS011;44465;53.206;-6.106;2024-02-21T12:26:49;0.30;;;0.30;;
58685;SDS011;44465;53.206;-6.106;2024-02-21T12:29:15;0.20;;;0.20;;
58685;SDS011;44465;53.206;-6.106;2024-02-21T12:31:40;0.17;;;0.13;;
58685;SDS011;44465;53.206;-6.106;2024-02-21T12:34:06;0.10;;;0.10;;
58685;SDS011;44465;53.206;-6.106;2024-02-21T12:36:32;0.30;;;0.30;;
58685;SDS011;44465;53.206;-6.106;2024-02-21T12:38:58;0.35;;;0.20;;
58685;SDS011;44465;53.206;-6.106;2024-02-21T12:41:25;0.10;;;0.10;;
58685;SDS011;44465;53.206;-6.106;2024-02-21T12:43:52;0.20;;;0.20;;
58685;SDS011;44465;53.206;-6.106;2024-02-21T12:46:17;0.20;;;0.20;;
58685;SDS011;44465;53.206;-6.106;2024-02-21T12:48:43;0.13;;;0.13;;
58685;SDS011;44465;53.206;-6.106;2024-02-21T12:51:08;0.20;;;0.20;;
58685;SDS011;44465;53.206;-6.106;2024-02-21T12:53:34;0.88;;;0.30;;
58685;SDS011;44465;53.206;-6.106;2024-02-21T12:56:00;0.22;;;0.20;;
58685;SDS011;44465;53.206;-6.106;2024-02-21T12:58:25;0.30;;;0.30;;
58685;SDS011;44465;53.206;-6.106;2024-02-21T13:00:51;0.10;;;0.10;;
58685;SDS011;44465;53.206;-6.106;2024-02-21T13:03:16;0.10;;;0.10;;
58685;SDS011;44465;53.206;-6.106;2024-02-21T13:05:42;0.30;;;0.30;;
58685;SDS011;44465;53.206;-6.106;2024-02-21T13:08:08;0.47;;;0.30;;
58685;SDS011;44465;53.206;-6.106;2024-02-21T13:10:34;0.30;;;0.30;;
58685;SDS011;44465;53.206;-6.106;2024-02-21T13:13:00;0.20;;;0.20;;
58685;SDS011;44465;53.206;-6.106;2024-02-21T13:15:28;0.22;;;0.20;;
58685;SDS011;44465;53.206;-6.106;2024-02-21T13:17:55;0.32;;;0.32;;
58685;SDS011;44465;53.206;-6.106;2024-02-21T13:22:47;0.25;;;0.25;;
58685;SDS011;44465;53.206;-6.106;2024-02-21T13:25:13;0.30;;;0.30;;
58685;SDS011;44465;53.206;-6.106;2024-02-21T13:27:43;0.82;;;0.40;;
58685;SDS011;44465;53.206;-6.106;2024-02-21T13:30:09;0.80;;;0.20;;
58685;SDS011;44465;53.206;-6.106;2024-02-21T13:32:35;0.20;;;0.20;;
58685;SDS011;44465;53.206;-6.106;2024-02-21T13:35:01;0.20;;;0.20;;
58685;SDS011;44465;53.206;-6.106;2024-02-21T13:37:28;0.75;;;0.45;;
58685;SDS011;44465;53.206;-6.106;2024-02-21T13:39:54;0.20;;;0.20;;
58685;SDS011;44465;53.206;-6.106;2024-02-21T13:42:20;0.73;;;0.38;;
58685;SDS011;44465;53.206;-6.106;2024-02-21T13:44:45;0.30;;;0.30;;
58685;SDS011;44465;53.206;-6.106;2024-02-21T13:47:12;0.50;;;0.50;;
58685;SDS011;44465;53.206;-6.106;2024-02-21T13:49:39;0.20;;;0.20;;
58685;SDS011;44465;53.206;-6.106;2024-02-21T13:52:05;0.45;;;0.30;;
58685;SDS011;44465;53.206;-6.106;2024-02-21T13:54:31;0.15;;;0.15;;
58685;SDS011;44465;53.206;-6.106;2024-02-21T13:56:56;0.20;;;0.20;;
58685;SDS011;44465;53.206;-6.106;2024-02-21T13:59:21;0.85;;;0.35;;
58685;SDS011;44465;53.206;-6.106;2024-02-21T14:01:47;0.82;;;0.25;;
58685;SDS011;44465;53.206;-6.106;2024-02-21T14:04:13;0.40;;;0.25;;
58685;SDS011;44465;53.206;-6.106;2024-02-21T14:06:39;0.30;;;0.22;;
58685;SDS011;44465;53.206;-6.106;2024-02-21T14:09:11;0.38;;;0.30;;
58685;SDS011;44465;53.206;-6.106;2024-02-21T14:11:37;0.30;;;0.30;;
58685;SDS011;44465;53.206;-6.106;2024-02-21T14:14:05;1.02;;;0.30;;
58685;SDS011;44465;53.206;-6.106;2024-02-21T14:16:30;0.32;;;0.30;;
58685;SDS011;44465;53.206;-6.106;2024-02-21T14:18:56;0.28;;;0.28;;
58685;SDS011;44465;53.206;-6.106;2024-02-21T14:21:21;0.20;;;0.20;;
58685;SDS011;44465;53.206;-6.106;2024-02-21T14:23:47;0.40;;;0.40;;
58685;SDS011;44465;53.206;-6.106;2024-02-21T14:26:13;0.30;;;0.30;;
58685;SDS011;44465;53.206;-6.106;2024-02-21T14:28:39;0.77;;;0.35;;
58685;SDS011;44465;53.206;-6.106;2024-02-21T14:31:05;0.38;;;0.35;;
58685;SDS011;44465;53.206;-6.106;2024-02-21T14:33:34;0.57;;;0.30;;
58685;SDS011;44465;53.206;-6.106;2024-02-21T14:36:00;0.30;;;0.30;;
58685;SDS011;44465;53.206;-6.106;2024-02-21T14:38:26;0.40;;;0.40;;
58685;SDS011;44465;53.206;-6.106;2024-02-21T14:40:52;0.50;;;0.30;;